TimeEST,TemperatureF,Dew PointF,Humidity,Sea Level PressureIn,VisibilityMPH,Wind Direction,Wind SpeedMPH,Gust SpeedMPH,PrecipitationIn,Events,Conditions,WindDirDegrees,DateUTC
12:00 AM,28.4,26.6,93,29.64,10.0,WSW,10.4,21.9,N/A,Snow,Light Snow,250,2013-01-01 05:00:00
1:00 AM,26.6,24.8,93,29.65,6.0,NW,9.2,20.7,N/A,Snow,Light Snow,310,2013-01-01 06:00:00
1:09 AM,26.6,19.4,74,29.67,12.0,WNW,16.1,28.8,N/A,Snow,Light Snow,300,2013-01-01 06:09:00
2:00 AM,23.0,14.0,68,29.71,25.0,WNW,11.5,20.7,N/A,Snow,Light Snow,290,2013-01-01 07:00:00
3:00 AM,19.4,10.4,68,29.74,25.0,West,9.2,21.9,N/A,Snow,Low Drifting Snow,280,2013-01-01 08:00:00
4:00 AM,15.8,6.8,68,29.78,25.0,West,8.1,-,N/A,Snow,Low Drifting Snow,280,2013-01-01 09:00:00
5:00 AM,10.4,1.4,67,29.82,25.0,WNW,16.1,25.3,N/A,Snow,Low Drifting Snow,300,2013-01-01 10:00:00
6:00 AM,8.6,-0.4,67,29.86,25.0,West,6.9,-,N/A,Snow,Low Drifting Snow,280,2013-01-01 11:00:00
7:00 AM,6.8,-2.2,67,29.91,25.0,WNW,9.2,17.3,N/A,,Partly Cloudy,290,2013-01-01 12:00:00
8:00 AM,5.0,-2.2,72,29.92,45.0,West,8.1,-,N/A,,Partly Cloudy,270,2013-01-01 13:00:00
9:00 AM,6.8,-0.4,72,29.92,45.0,WSW,5.8,-,N/A,,Partly Cloudy,250,2013-01-01 14:00:00
10:00 AM,8.6,-2.2,62,29.93,45.0,WNW,6.9,-,N/A,,Partly Cloudy,300,2013-01-01 15:00:00
11:00 AM,10.4,-0.4,62,29.92,45.0,WNW,6.9,-,N/A,,Partly Cloudy,300,2013-01-01 16:00:00
12:00 PM,10.4,-2.2,57,29.92,45.0,WNW,10.4,17.3,N/A,,Partly Cloudy,290,2013-01-01 17:00:00
1:00 PM,10.4,-0.4,62,29.90,45.0,West,9.2,-,N/A,,Partly Cloudy,270,2013-01-01 18:00:00
2:00 PM,12.2,-0.4,57,29.90,45.0,West,8.1,19.6,N/A,,Partly Cloudy,280,2013-01-01 19:00:00
3:00 PM,10.4,-2.2,57,29.91,45.0,West,11.5,18.4,N/A,,Partly Cloudy,280,2013-01-01 20:00:00
4:00 PM,8.6,-4.0,57,29.91,45.0,WNW,5.8,-,N/A,,Partly Cloudy,290,2013-01-01 21:00:00
5:00 PM,5.0,-4.0,66,29.94,25.0,West,5.8,-,N/A,,Clear,270,2013-01-01 22:00:00
6:00 PM,3.2,-4.0,72,29.95,25.0,West,3.5,-,N/A,,Clear,260,2013-01-01 23:00:00
7:00 PM,3.2,-4.0,72,29.96,25.0,WSW,5.8,-,N/A,,Clear,240,2013-01-02 00:00:00
8:00 PM,1.4,-4.0,78,29.97,25.0,WSW,5.8,-,N/A,,Clear,250,2013-01-02 01:00:00
9:00 PM,1.4,-4.0,78,29.95,25.0,WSW,5.8,-,N/A,,Partly Cloudy,240,2013-01-02 02:00:00
10:00 PM,1.4,-4.0,78,29.95,25.0,WSW,6.9,-,N/A,,Mostly Cloudy,240,2013-01-02 03:00:00
11:00 PM,1.4,-4.0,78,29.94,25.0,WSW,5.8,-,N/A,,Mostly Cloudy,240,2013-01-02 04:00:00